createdAt,value
2023-05-14T00:01:53.699Z,97.58
2023-05-14T00:04:20.576Z,97.55
2023-05-14T00:06:47.528Z,97.47
2023-05-14T00:09:14.351Z,97.02
2023-05-14T00:11:41.222Z,97.37
2023-05-14T00:14:08.118Z,97.69
2023-05-14T00:16:35.146Z,96.76
2023-05-14T00:19:02.241Z,97.79
2023-05-14T00:21:29.322Z,97.84
2023-05-14T00:23:56.169Z,97.59
2023-05-14T00:26:23.176Z,97.40
2023-05-14T00:28:50.261Z,97.83
2023-05-14T00:31:17.193Z,97.98
2023-05-14T00:33:44.181Z,98.57
2023-05-14T00:36:11.153Z,97.59
2023-05-14T00:38:38.013Z,97.99
2023-05-14T00:41:05.102Z,97.30
2023-05-14T00:43:33.404Z,97.42
2023-05-14T00:46:01.014Z,97.93
2023-05-14T00:48:28.060Z,98.23
2023-05-14T00:50:55.334Z,97.85
2023-05-14T00:53:22.430Z,96.66
2023-05-14T00:55:50.747Z,96.25
2023-05-14T00:58:19.083Z,96.68
2023-05-14T01:03:21.498Z,99.21
2023-05-14T01:06:01.154Z,100.00
2023-05-14T01:08:54.936Z,100.00
2023-05-14T01:11:30.809Z,100.00
2023-05-14T01:14:19.327Z,100.00
2023-05-14T01:16:46.372Z,100.00
2023-05-14T01:19:44.026Z,100.00
2023-05-14T01:22:11.193Z,97.77
2023-05-14T01:24:38.155Z,100.00
2023-05-14T01:27:31.919Z,99.38
2023-05-14T01:30:11.408Z,97.03
2023-05-14T01:32:41.017Z,97.03
2023-05-14T01:35:09.816Z,97.30
2023-05-14T01:37:37.325Z,96.73
2023-05-14T01:40:05.477Z,94.97
2023-05-14T01:42:33.111Z,95.79
2023-05-14T01:45:00.110Z,95.71
2023-05-14T01:47:27.087Z,96.27
2023-05-14T01:49:54.004Z,96.79
2023-05-14T01:52:21.430Z,96.65
2023-05-14T01:54:48.966Z,97.84
2023-05-14T01:57:15.904Z,98.02
2023-05-14T01:59:42.731Z,96.61
2023-05-14T02:02:09.645Z,96.92
2023-05-14T02:04:36.625Z,97.15
2023-05-14T02:07:03.449Z,96.63
2023-05-14T02:09:30.944Z,95.10
2023-05-14T02:11:57.788Z,96.13
2023-05-14T02:14:24.603Z,94.58
2023-05-14T02:16:51.592Z,95.46
2023-05-14T02:19:19.006Z,95.16
2023-05-14T02:21:45.878Z,95.82
2023-05-14T02:24:12.945Z,95.34
2023-05-14T02:26:40.184Z,96.13
2023-05-14T02:29:07.018Z,97.14
2023-05-14T02:31:34.107Z,96.23
2023-05-14T02:34:04.929Z,98.14
2023-05-14T02:36:31.991Z,97.21
2023-05-14T02:39:00.059Z,97.55
2023-05-14T02:41:27.660Z,97.86
2023-05-14T02:43:55.090Z,96.37
2023-05-14T02:46:22.387Z,97.17
2023-05-14T02:48:49.672Z,98.95
2023-05-14T02:51:16.982Z,97.97
2023-05-14T02:53:43.836Z,97.04
2023-05-14T02:56:10.699Z,97.26
2023-05-14T02:58:37.705Z,97.94
2023-05-14T03:01:04.860Z,96.67
2023-05-14T03:03:32.243Z,99.57
2023-05-14T03:06:00.018Z,97.64
2023-05-14T03:08:27.117Z,99.10
2023-05-14T03:10:54.092Z,98.18
2023-05-14T03:13:21.406Z,99.10
2023-05-14T03:15:48.884Z,99.27
2023-05-14T03:18:15.941Z,100.00
2023-05-14T03:20:42.953Z,99.09
2023-05-14T03:23:09.948Z,99.36
2023-05-14T03:25:37.174Z,98.90
2023-05-14T03:28:04.291Z,99.06
2023-05-14T03:30:31.187Z,97.58
2023-05-14T03:32:58.661Z,99.82
2023-05-14T03:35:25.714Z,97.92
2023-05-14T03:37:53.285Z,98.35
2023-05-14T03:40:21.450Z,98.23
2023-05-14T03:42:48.832Z,98.75
2023-05-14T03:45:15.943Z,100.00
2023-05-14T03:47:42.872Z,99.49
2023-05-14T03:50:10.497Z,99.60
2023-05-14T03:52:37.710Z,99.84
2023-05-14T03:55:04.851Z,100.00
2023-05-14T03:57:31.667Z,100.00
2023-05-14T03:59:58.788Z,100.00
2023-05-14T04:02:26.205Z,100.00
2023-05-14T04:04:53.772Z,100.00
2023-05-14T04:07:20.774Z,99.99
2023-05-14T04:09:47.596Z,100.00
2023-05-14T04:12:16.820Z,98.97
2023-05-14T04:14:43.715Z,100.00
2023-05-14T04:17:10.698Z,99.51
2023-05-14T04:19:37.545Z,99.49
2023-05-14T04:22:04.631Z,99.41
2023-05-14T04:24:31.479Z,98.48
2023-05-14T04:26:58.298Z,98.01
2023-05-14T04:29:25.426Z,96.96
2023-05-14T04:31:52.398Z,97.87
2023-05-14T04:34:19.294Z,98.27
2023-05-14T04:36:46.814Z,97.95
2023-05-14T04:39:14.340Z,97.23
2023-05-14T04:41:41.544Z,98.87
2023-05-14T04:44:09.072Z,98.84
2023-05-14T04:46:35.929Z,99.39
2023-05-14T04:49:02.805Z,99.36
2023-05-14T04:51:29.646Z,100.00
2023-05-14T04:53:56.494Z,99.34
2023-05-14T04:56:23.310Z,100.00
2023-05-14T04:58:50.631Z,100.00
2023-05-14T05:01:17.556Z,100.00
2023-05-14T05:03:44.581Z,100.00
2023-05-14T05:06:11.685Z,100.00
2023-05-14T05:08:38.992Z,100.00
2023-05-14T05:11:05.934Z,100.00
2023-05-14T05:13:32.782Z,100.00
2023-05-14T05:15:59.708Z,100.00
2023-05-14T05:18:26.636Z,100.00
2023-05-14T05:20:53.646Z,100.00
2023-05-14T05:23:20.707Z,100.00
2023-05-14T05:25:47.566Z,100.00
2023-05-14T05:28:15.471Z,100.00
2023-05-14T05:30:45.142Z,100.00
2023-05-14T05:33:12.809Z,100.00
2023-05-14T05:35:39.785Z,100.00
2023-05-14T05:38:06.631Z,100.00
2023-05-14T05:40:33.674Z,100.00
2023-05-14T05:43:00.894Z,100.00
2023-05-14T05:45:27.838Z,100.00
2023-05-14T05:47:54.882Z,100.00
2023-05-14T05:50:22.841Z,100.00
2023-05-14T05:52:49.978Z,100.00
2023-05-14T05:55:16.851Z,100.00
2023-05-14T05:57:43.976Z,100.00
2023-05-14T06:00:14.443Z,100.00
2023-05-14T06:02:42.349Z,100.00
2023-05-14T06:05:10.560Z,100.00
2023-05-14T06:07:37.666Z,100.00
2023-05-14T06:10:05.135Z,100.00
2023-05-14T06:12:32.219Z,100.00
2023-05-14T06:14:59.172Z,100.00
2023-05-14T06:17:26.094Z,100.00
2023-05-14T06:19:53.437Z,100.00
2023-05-14T06:22:20.527Z,100.00
2023-05-14T06:24:48.108Z,100.00
2023-05-14T06:27:15.235Z,100.00
2023-05-14T06:29:42.067Z,100.00
2023-05-14T06:32:09.401Z,100.00
2023-05-14T06:34:36.378Z,100.00
2023-05-14T06:37:04.330Z,100.00
2023-05-14T06:39:31.205Z,100.00
2023-05-14T06:41:58.202Z,100.00
2023-05-14T06:44:25.192Z,100.00
2023-05-14T06:46:52.336Z,100.00
2023-05-14T06:49:19.425Z,100.00
2023-05-14T06:51:46.578Z,100.00
2023-05-14T06:54:13.532Z,100.00
2023-05-14T06:56:40.463Z,100.00
2023-05-14T06:59:07.432Z,100.00
2023-05-14T07:01:34.444Z,100.00
2023-05-14T07:04:01.794Z,100.00
2023-05-14T07:06:28.930Z,100.00
2023-05-14T07:08:59.557Z,100.00
2023-05-14T07:11:26.890Z,100.00
2023-05-14T07:13:53.880Z,100.00
2023-05-14T07:16:21.129Z,100.00
2023-05-14T07:18:55.921Z,100.00
2023-05-14T07:21:22.900Z,100.00
2023-05-14T07:23:49.896Z,100.00
2023-05-14T07:26:17.097Z,100.00
2023-05-14T07:28:44.231Z,100.00
2023-05-14T07:31:11.315Z,100.00
2023-05-14T07:33:38.599Z,100.00
2023-05-14T07:36:06.172Z,100.00
2023-05-14T07:38:33.275Z,100.00
2023-05-14T07:41:00.445Z,100.00
2023-05-14T07:43:27.370Z,100.00
2023-05-14T07:45:54.460Z,100.00
2023-05-14T07:48:21.396Z,100.00
2023-05-14T07:50:49.925Z,100.00
2023-05-14T07:53:16.941Z,100.00
2023-05-14T07:55:45.524Z,100.00
2023-05-14T07:58:12.543Z,100.00
2023-05-14T08:00:39.478Z,100.00
2023-05-14T08:03:17.424Z,100.00
2023-05-14T08:05:44.412Z,100.00
2023-05-14T08:08:12.642Z,100.00
2023-05-14T08:10:39.889Z,100.00
2023-05-14T08:13:07.028Z,100.00
2023-05-14T08:15:34.073Z,98.58
2023-05-14T08:18:04.023Z,97.63
2023-05-14T08:20:31.529Z,99.66
2023-05-14T08:22:59.881Z,99.97
2023-05-14T08:25:26.820Z,98.61
2023-05-14T08:27:54.410Z,99.74
2023-05-14T08:30:30.142Z,98.11
2023-05-14T08:32:58.575Z,99.00
2023-05-14T08:35:25.680Z,100.00
2023-05-14T08:37:52.996Z,98.56
2023-05-14T08:40:20.853Z,97.21
2023-05-14T08:42:48.912Z,97.09
2023-05-14T08:45:21.146Z,96.79
2023-05-14T08:47:52.993Z,95.34
2023-05-14T08:50:23.068Z,94.44
2023-05-14T08:52:51.517Z,96.56
2023-05-14T08:55:19.500Z,95.54
2023-05-14T08:57:46.618Z,94.76
2023-05-14T09:00:15.526Z,95.44
2023-05-14T09:02:45.204Z,96.98
2023-05-14T09:05:12.685Z,95.56
2023-05-14T09:07:39.672Z,95.25
2023-05-14T09:10:09.201Z,92.74
2023-05-14T09:12:37.972Z,91.97
2023-05-14T09:15:05.358Z,92.04
2023-05-14T09:17:33.827Z,88.85
2023-05-14T09:20:02.348Z,90.85
2023-05-14T09:22:33.286Z,89.18
2023-05-14T09:25:12.677Z,92.42
2023-05-14T09:27:39.886Z,90.18
2023-05-14T09:30:11.827Z,90.77
2023-05-14T09:32:40.708Z,93.26
2023-05-14T09:35:19.109Z,92.89
2023-05-14T09:37:48.456Z,93.42
2023-05-14T09:40:16.689Z,92.81
2023-05-14T09:42:43.979Z,92.18
2023-05-14T09:45:11.837Z,91.77
2023-05-14T09:47:40.031Z,90.98
2023-05-14T09:50:08.415Z,90.14
2023-05-14T09:52:36.744Z,92.68
2023-05-14T09:55:04.345Z,92.04
2023-05-14T09:57:31.358Z,89.83
2023-05-14T09:59:58.759Z,89.83
2023-05-14T10:02:30.607Z,90.10
2023-05-14T10:05:03.229Z,90.84
2023-05-14T10:07:37.722Z,92.77
2023-05-14T10:10:08.802Z,92.96
2023-05-14T10:12:40.594Z,93.74
2023-05-14T10:15:16.566Z,94.07
2023-05-14T10:17:49.611Z,93.29
2023-05-14T10:20:18.671Z,91.79
2023-05-14T10:22:46.800Z,91.94
2023-05-14T10:25:14.700Z,92.35
2023-05-14T10:27:42.689Z,94.47
2023-05-14T10:30:14.553Z,95.08
2023-05-14T10:32:42.626Z,94.88
2023-05-14T10:35:17.749Z,96.84
2023-05-14T10:37:46.504Z,95.51
2023-05-14T10:40:14.210Z,94.14
2023-05-14T10:42:43.982Z,92.43
2023-05-14T10:45:15.611Z,91.67
2023-05-14T10:47:44.778Z,91.08
2023-05-14T10:50:14.774Z,88.84
2023-05-14T10:52:46.064Z,87.58
2023-05-14T10:55:15.361Z,89.64
2023-05-14T10:57:45.341Z,90.02
2023-05-14T11:00:14.931Z,89.54
2023-05-14T11:02:44.084Z,88.61
2023-05-14T11:05:16.202Z,87.71
2023-05-14T11:07:44.338Z,86.79
2023-05-14T11:10:14.022Z,86.55
2023-05-14T11:12:43.469Z,87.69
2023-05-14T11:15:28.420Z,86.80
2023-05-14T11:17:55.645Z,89.95
2023-05-14T11:20:22.975Z,87.24
2023-05-14T11:22:53.481Z,87.45
2023-05-14T11:25:21.986Z,85.51
2023-05-14T11:27:50.772Z,87.04
2023-05-14T11:30:20.286Z,86.29
2023-05-14T11:32:49.312Z,85.18
2023-05-14T11:35:18.159Z,86.67
2023-05-14T11:37:57.514Z,86.07
2023-05-14T11:40:24.625Z,86.01
2023-05-14T11:42:53.658Z,84.81
2023-05-14T11:45:27.988Z,85.69
2023-05-14T11:47:55.123Z,86.03
2023-05-14T11:50:25.052Z,85.01
2023-05-14T11:52:57.603Z,84.35
2023-05-14T11:55:24.751Z,84.19
2023-05-14T11:57:51.902Z,83.83
2023-05-14T12:00:22.299Z,85.45
2023-05-14T12:02:50.632Z,85.89
2023-05-14T12:05:17.856Z,85.66
2023-05-14T12:07:46.159Z,84.92
2023-05-14T12:10:13.874Z,84.90
2023-05-14T12:12:41.057Z,83.86
2023-05-14T12:15:13.755Z,83.81
2023-05-14T12:17:41.548Z,83.65
2023-05-14T12:20:12.599Z,84.80
2023-05-14T12:22:42.253Z,83.95
2023-05-14T12:25:17.405Z,85.14
2023-05-14T12:27:45.851Z,85.46
2023-05-14T12:30:21.176Z,85.66
2023-05-14T12:32:53.169Z,84.07
2023-05-14T12:35:23.033Z,84.20
2023-05-14T12:37:50.293Z,84.66
2023-05-14T12:40:18.791Z,84.15
2023-05-14T12:42:45.924Z,84.12
2023-05-14T12:45:13.090Z,83.99
2023-05-14T12:47:40.130Z,85.68
2023-05-14T12:50:08.753Z,83.29
2023-05-14T12:52:39.318Z,82.21
2023-05-14T12:55:09.969Z,82.02
2023-05-14T12:57:38.880Z,84.30
2023-05-14T13:00:08.242Z,83.94
2023-05-14T13:02:43.105Z,85.90
2023-05-14T13:05:13.854Z,85.24
2023-05-14T13:07:42.204Z,84.50
2023-05-14T13:10:09.901Z,85.80
2023-05-14T13:12:37.104Z,85.50
2023-05-14T13:15:04.548Z,86.17
2023-05-14T13:17:31.665Z,86.72
2023-05-14T13:19:59.039Z,86.63
2023-05-14T13:22:26.047Z,87.71
2023-05-14T13:24:53.575Z,88.04
2023-05-14T13:27:21.564Z,87.51
2023-05-14T13:29:48.429Z,87.32
2023-05-14T13:32:15.927Z,87.46
2023-05-14T13:34:44.161Z,88.24
2023-05-14T13:37:11.566Z,88.04
2023-05-14T13:39:39.811Z,87.48
2023-05-14T13:42:08.190Z,87.28
2023-05-14T13:44:36.884Z,87.20
2023-05-14T13:47:04.172Z,86.75
2023-05-14T13:49:31.636Z,87.94
2023-05-14T13:51:58.741Z,88.47
2023-05-14T13:54:25.699Z,87.41
2023-05-14T13:56:52.541Z,85.13
2023-05-14T13:59:20.699Z,86.48
2023-05-14T14:01:50.767Z,85.12
2023-05-14T14:04:17.973Z,86.60
2023-05-14T14:06:44.841Z,86.10
2023-05-14T14:09:14.548Z,86.74
2023-05-14T14:11:41.683Z,86.57
2023-05-14T14:14:08.552Z,85.83
2023-05-14T14:16:36.432Z,85.29
2023-05-14T14:19:04.045Z,86.45
2023-05-14T14:21:32.295Z,84.63
2023-05-14T14:23:59.862Z,85.31
2023-05-14T14:26:28.497Z,84.97
2023-05-14T14:28:56.206Z,84.92
2023-05-14T14:31:23.384Z,86.06
2023-05-14T14:33:50.252Z,87.28
2023-05-14T14:36:17.809Z,86.87
2023-05-14T14:38:44.846Z,87.15
2023-05-14T14:41:12.523Z,87.53
2023-05-14T14:43:41.235Z,88.13
2023-05-14T14:46:10.394Z,87.97
2023-05-14T14:48:41.798Z,88.01
2023-05-14T14:51:09.938Z,88.86
2023-05-14T14:53:37.369Z,89.08
2023-05-14T14:56:05.032Z,88.83
2023-05-14T14:58:33.317Z,89.59
2023-05-14T15:01:01.426Z,89.24
2023-05-14T15:03:29.100Z,88.93
2023-05-14T15:05:56.286Z,88.91
2023-05-14T15:08:26.835Z,89.19
2023-05-14T15:10:54.904Z,89.20
2023-05-14T15:13:22.331Z,89.57
2023-05-14T15:15:51.279Z,89.07
2023-05-14T15:18:18.692Z,89.84
2023-05-14T15:20:45.683Z,89.44
2023-05-14T15:23:14.041Z,90.23
2023-05-14T15:25:41.254Z,90.04
2023-05-14T15:28:08.267Z,90.15
2023-05-14T15:30:36.765Z,90.38
2023-05-14T15:33:03.820Z,90.91
2023-05-14T15:35:31.138Z,90.07
2023-05-14T15:37:58.128Z,90.03
2023-05-14T15:40:25.541Z,90.08
2023-05-14T15:42:53.013Z,90.02
2023-05-14T15:45:19.957Z,90.87
2023-05-14T15:47:47.115Z,90.71
2023-05-14T15:50:15.282Z,91.24
2023-05-14T15:52:42.500Z,91.52
2023-05-14T15:55:10.163Z,92.26
2023-05-14T15:57:38.313Z,91.82
2023-05-14T16:00:13.401Z,91.69
2023-05-14T16:02:40.991Z,91.81
2023-05-14T16:05:09.955Z,91.89
2023-05-14T16:07:39.132Z,92.31
2023-05-14T16:10:07.213Z,92.55
2023-05-14T16:12:34.156Z,92.28
2023-05-14T16:15:01.671Z,92.31
2023-05-14T16:17:30.703Z,92.08
2023-05-14T16:19:58.150Z,92.45
2023-05-14T16:22:25.735Z,92.29
2023-05-14T16:24:52.573Z,92.47
2023-05-14T16:27:19.554Z,92.51
2023-05-14T16:29:48.273Z,92.77
2023-05-14T16:32:15.230Z,92.63
2023-05-14T16:34:42.279Z,92.37
2023-05-14T16:37:11.961Z,92.32
2023-05-14T16:39:40.330Z,92.68
2023-05-14T16:42:07.502Z,92.74
2023-05-14T16:44:35.037Z,92.50
2023-05-14T16:47:02.431Z,93.05
2023-05-14T16:49:29.513Z,92.96
2023-05-14T16:51:56.866Z,93.38
2023-05-14T16:54:24.205Z,93.30
2023-05-14T16:56:51.978Z,93.56
2023-05-14T16:59:19.349Z,93.21
2023-05-14T17:01:49.635Z,93.51
2023-05-14T17:04:18.394Z,93.41
2023-05-14T17:06:47.150Z,93.04
2023-05-14T17:09:16.582Z,93.57
2023-05-14T17:11:43.633Z,93.65
2023-05-14T17:14:10.735Z,93.74
2023-05-14T17:16:39.579Z,93.57
2023-05-14T17:19:06.677Z,93.70
2023-05-14T17:21:34.387Z,93.99
2023-05-14T17:24:01.476Z,93.83
2023-05-14T17:26:29.694Z,94.12
2023-05-14T17:28:57.054Z,93.79
2023-05-14T17:31:25.345Z,94.31
2023-05-14T17:33:54.767Z,94.01
2023-05-14T17:36:22.414Z,93.86
2023-05-14T17:38:49.534Z,94.13
2023-05-14T17:41:16.741Z,94.78
2023-05-14T17:43:44.019Z,94.90
2023-05-14T17:46:11.008Z,94.83
2023-05-14T17:48:38.283Z,94.80
2023-05-14T17:51:05.384Z,94.82
2023-05-14T17:53:33.466Z,95.67
2023-05-14T17:56:01.106Z,95.27
2023-05-14T17:58:28.501Z,95.35
2023-05-14T18:00:55.569Z,95.81
2023-05-14T18:03:25.999Z,96.13
2023-05-14T18:05:53.605Z,96.15
2023-05-14T18:08:23.537Z,95.95
2023-05-14T18:10:52.266Z,95.71
2023-05-14T18:13:19.337Z,95.46
2023-05-14T18:15:48.847Z,95.12
2023-05-14T18:18:19.016Z,95.82
2023-05-14T18:20:48.870Z,95.62
2023-05-14T18:23:19.459Z,95.01
2023-05-14T18:25:46.513Z,95.17
2023-05-14T18:28:13.976Z,94.77
2023-05-14T18:30:43.803Z,94.82
2023-05-14T18:33:10.781Z,95.14
2023-05-14T18:35:38.034Z,94.75
2023-05-14T18:38:05.529Z,94.36
2023-05-14T18:40:32.580Z,94.16
2023-05-14T18:43:00.296Z,94.59
2023-05-14T18:45:27.830Z,93.82
2023-05-14T18:47:55.658Z,94.22
2023-05-14T18:50:22.799Z,94.34
2023-05-14T18:52:50.791Z,93.94
2023-05-14T18:55:17.818Z,93.70
2023-05-14T18:57:44.863Z,93.49
2023-05-14T19:00:12.551Z,95.91
2023-05-14T19:02:39.817Z,93.47
2023-05-14T19:05:08.856Z,93.99
2023-05-14T19:07:37.877Z,93.73
2023-05-14T19:10:06.140Z,93.63
2023-05-14T19:12:33.656Z,94.04
2023-05-14T19:15:00.676Z,94.57
2023-05-14T19:17:29.460Z,94.15
2023-05-14T19:19:56.697Z,94.51
2023-05-14T19:22:23.754Z,94.43
2023-05-14T19:24:51.717Z,94.80
2023-05-14T19:27:22.063Z,94.71
2023-05-14T19:29:49.690Z,94.71
2023-05-14T19:32:16.795Z,95.01
2023-05-14T19:34:44.728Z,95.29
2023-05-14T19:37:12.328Z,95.06
2023-05-14T19:39:39.350Z,94.55
2023-05-14T19:42:07.252Z,94.73
2023-05-14T19:44:34.938Z,95.23
2023-05-14T19:47:02.050Z,95.02
2023-05-14T19:49:29.102Z,95.09
2023-05-14T19:51:56.168Z,94.82
2023-05-14T19:54:23.468Z,94.78
2023-05-14T19:56:50.554Z,95.22
2023-05-14T19:59:17.471Z,95.02
2023-05-14T20:01:44.677Z,94.86
2023-05-14T20:04:11.842Z,94.96
2023-05-14T20:06:40.540Z,94.95
2023-05-14T20:09:07.578Z,95.16
2023-05-14T20:11:34.687Z,95.67
2023-05-14T20:14:01.937Z,95.91
2023-05-14T20:16:29.085Z,95.88
2023-05-14T20:18:56.829Z,95.77
2023-05-14T20:21:24.954Z,96.13
2023-05-14T20:23:51.800Z,95.50
2023-05-14T20:26:18.707Z,96.01
2023-05-14T20:28:45.701Z,95.78
2023-05-14T20:31:12.720Z,95.79
2023-05-14T20:33:39.948Z,95.42
2023-05-14T20:36:07.097Z,95.56
2023-05-14T20:38:35.234Z,95.00
2023-05-14T20:41:02.087Z,94.94
2023-05-14T20:43:29.071Z,95.01
2023-05-14T20:45:57.484Z,94.38
2023-05-14T20:48:24.466Z,93.77
2023-05-14T20:50:51.291Z,93.92
2023-05-14T20:53:18.149Z,93.17
2023-05-14T20:55:45.131Z,93.81
2023-05-14T20:58:12.037Z,93.68
2023-05-14T21:00:39.427Z,93.12
2023-05-14T21:03:06.749Z,93.63
2023-05-14T21:05:34.980Z,93.62
2023-05-14T21:08:01.852Z,93.35
2023-05-14T21:10:28.838Z,93.50
2023-05-14T21:12:55.717Z,93.53
2023-05-14T21:15:23.014Z,93.39
2023-05-14T21:17:50.364Z,93.84
2023-05-14T21:20:17.410Z,93.63
2023-05-14T21:22:44.231Z,93.47
2023-05-14T21:25:11.440Z,93.92
2023-05-14T21:27:38.392Z,93.77
2023-05-14T21:30:06.052Z,93.75
2023-05-14T21:32:33.144Z,93.81
2023-05-14T21:35:00.009Z,93.88
2023-05-14T21:37:26.935Z,94.09
2023-05-14T21:39:53.834Z,93.79
2023-05-14T21:42:21.282Z,93.46
2023-05-14T21:44:48.175Z,93.32
2023-05-14T21:47:16.343Z,93.83
2023-05-14T21:49:43.565Z,93.69
2023-05-14T21:52:10.969Z,93.83
2023-05-14T21:54:37.809Z,93.72
2023-05-14T21:57:04.859Z,93.65
2023-05-14T21:59:31.779Z,93.38
2023-05-14T22:04:28.641Z,94.01
2023-05-14T22:06:56.064Z,93.74
2023-05-14T22:09:22.942Z,93.84
2023-05-14T22:11:49.900Z,94.04
2023-05-14T22:14:16.732Z,94.11
2023-05-14T22:16:43.750Z,94.15
2023-05-14T22:19:10.613Z,94.10
2023-05-14T22:21:37.462Z,94.59
2023-05-14T22:24:04.464Z,94.60
2023-05-14T22:26:31.353Z,94.19
2023-05-14T22:28:58.280Z,94.08
2023-05-14T22:31:25.323Z,93.77
2023-05-14T22:33:52.289Z,93.79
2023-05-14T22:36:19.138Z,94.00
2023-05-14T22:38:46.021Z,93.75
2023-05-14T22:41:12.971Z,93.14
2023-05-14T22:43:39.965Z,93.23
2023-05-14T22:46:06.942Z,92.83
2023-05-14T22:48:33.778Z,93.61
2023-05-14T22:51:00.660Z,93.82
2023-05-14T22:53:27.632Z,93.62
2023-05-14T22:55:54.528Z,93.85
2023-05-14T22:58:21.460Z,94.31
2023-05-14T23:00:48.332Z,94.13
2023-05-14T23:03:15.355Z,94.39
2023-05-14T23:05:42.317Z,94.53
2023-05-14T23:08:09.308Z,93.97
2023-05-14T23:10:36.226Z,94.71
2023-05-14T23:13:03.984Z,94.43
2023-05-14T23:15:30.943Z,94.08
2023-05-14T23:17:57.854Z,94.57
2023-05-14T23:20:24.753Z,94.85
2023-05-14T23:22:52.295Z,95.11
2023-05-14T23:25:19.129Z,95.41
2023-05-14T23:27:46.057Z,95.24
2023-05-14T23:30:13.276Z,95.46
2023-05-14T23:32:40.219Z,94.74
2023-05-14T23:35:07.429Z,94.59
2023-05-14T23:37:36.064Z,94.18
2023-05-14T23:40:03.797Z,94.71
2023-05-14T23:42:30.880Z,94.55
2023-05-14T23:44:57.890Z,93.99
2023-05-14T23:47:24.860Z,94.01
2023-05-14T23:49:51.806Z,94.43
2023-05-14T23:52:18.740Z,94.18
2023-05-14T23:54:45.690Z,94.04
2023-05-14T23:57:14.617Z,93.97
2023-05-14T23:59:41.637Z,94.44
